02:14
Airports
History
Links
Donate
Help keep this website running!
PayPal
Bitcoin
This page is community maintained. The information is intended for PC simulator navigation or reference.
Always use approved charts for navigation.
EDVI
Hoexter-Holzminden
Hoexter-Holzminden (EDVI)
Höxter, Nordrhein-Westfalen, Germany (37671)
(C)
Lat/Lng:51° 48' 30" N / 9° 22' 48" E
51.808334 / 9.38
Elevation:561'ft / 171mMSL
ID / ICAO:EDVI
Runways:1
Longest:31-13
Asphalt 740m / 2,429ft
Controlled:Yes
Nearby Weather20:50 GMT 2017-12-10
Nearby weather at EDVK, Kassel Calden located 27.7 nautical miles from EDVI
Altimeter: 28.85
Visibility: 6.2 statute miles
Wind: 18 knots (from 190°)
Temp: 4°c / 39°f
Humidity: 86.8%

METAR: EDVK 102050Z 19018G30KT 9999 FEW034 04/02 Q0977

(Powered by phpweather)
Nearby VORs <50NM
Nearby NDBs
Runway 31 / 13
Dimensions:740.3 x 21.3m 2429' x 70'ft
Surface:Asphalt
Runway 31 [A]Runway 13 [B]
Heading:312°TH 132°TH
Lat:
Lng:
51° 48' 21.79"N
9° 23' 2.25"E
51° 48' 38.22"N
9° 22' 33.75"E
User Notes and Comments
51° 48' 30" N / 9° 22' 48" E
Distance To
Airport ID:
Nearby Airports
(U) Bad Pyrmont 11.8 NM
EDVW NNW 341°
(C) Kassel Calden 27.7 NM
EDVK ( WX ) S 180°
4 Bad Gandersheim 27.7 NM
EDVA E 83°
(U) Rinteln 27.9 NM
EDVR NNW 330°
4 Northeim 29.1 NM
EDVN ESE 103°
(C) Oerlinghausen 31.3 NM
EDLO WNW 286°
(C) Bueckeburg 34.9 NM
ETHB ( WX ) NNW 338°
VFR Chart
Flight Planning at SkyVector.com